createdAt,value
2019-03-21T00:00:26.272Z,5.93
2019-03-21T00:05:35.564Z,4.97
2019-03-21T00:11:17.755Z,5.37
2019-03-21T00:16:37.067Z,5.53
2019-03-21T00:21:44.328Z,5.80
2019-03-21T00:26:56.172Z,5.77
2019-03-21T00:32:05.420Z,5.30
2019-03-21T00:37:13.731Z,5.03
2019-03-21T00:42:20.556Z,5.43
2019-03-21T00:47:27.524Z,4.93
2019-03-21T00:52:36.811Z,5.97
2019-03-21T00:57:44.576Z,6.03
2019-03-21T01:02:55.937Z,4.80
2019-03-21T01:08:09.323Z,5.60
2019-03-21T01:13:17.654Z,5.90
2019-03-21T01:18:26.991Z,5.07
2019-03-21T01:23:40.540Z,6.17
2019-03-21T01:29:06.268Z,5.57
2019-03-21T01:34:14.707Z,5.53
2019-03-21T01:39:23.324Z,5.63
2019-03-21T01:44:41.070Z,5.50
2019-03-21T01:49:44.103Z,5.27
2019-03-21T01:54:53.255Z,5.57
2019-03-21T02:00:00.862Z,5.10
2019-03-21T02:05:14.079Z,5.90
2019-03-21T02:10:23.117Z,6.47
2019-03-21T02:15:33.173Z,5.60
2019-03-21T02:20:43.212Z,4.90
2019-03-21T02:25:52.368Z,5.80
2019-03-21T02:31:02.229Z,5.87
2019-03-21T02:36:10.341Z,5.20
2019-03-21T02:41:18.415Z,5.43
2019-03-21T02:46:27.397Z,5.30
2019-03-21T02:51:36.713Z,5.77
2019-03-21T02:56:51.819Z,5.70
2019-03-21T03:02:01.814Z,5.30
2019-03-21T03:07:19.857Z,5.77
2019-03-21T03:12:36.553Z,6.50
2019-03-21T03:17:47.863Z,6.10
2019-03-21T03:23:04.403Z,5.87
2019-03-21T03:28:20.702Z,5.30
2019-03-21T03:33:29.157Z,5.70
2019-03-21T03:38:36.387Z,5.33
2019-03-21T03:43:47.375Z,6.10
2019-03-21T03:48:56.225Z,6.07
2019-03-21T03:54:06.153Z,5.13
2019-03-21T03:59:14.429Z,5.50
2019-03-21T04:04:33.358Z,6.07
2019-03-21T04:09:42.345Z,6.70
2019-03-21T04:14:53.115Z,5.57
2019-03-21T04:20:01.977Z,6.17
2019-03-21T04:25:12.586Z,6.00
2019-03-21T04:30:20.570Z,5.73
2019-03-21T04:35:30.198Z,5.80
2019-03-21T04:40:44.108Z,6.10
2019-03-21T04:46:02.929Z,6.77
2019-03-21T04:51:06.357Z,7.03
2019-03-21T04:56:13.968Z,6.60
2019-03-21T05:01:22.910Z,6.40
2019-03-21T05:06:38.467Z,7.80
2019-03-21T05:11:47.209Z,7.30
2019-03-21T05:16:56.263Z,6.80
2019-03-21T05:22:05.831Z,7.60
2019-03-21T05:27:15.313Z,7.17
2019-03-21T05:32:22.745Z,7.33
2019-03-21T05:37:34.565Z,7.73
2019-03-21T05:42:45.089Z,7.60
2019-03-21T05:47:51.900Z,8.57
2019-03-21T05:53:06.762Z,7.87
2019-03-21T05:59:12.304Z,8.10
2019-03-21T06:04:39.957Z,9.20
2019-03-21T06:09:48.687Z,7.70
2019-03-21T06:15:04.299Z,7.90
2019-03-21T06:20:43.077Z,7.90
2019-03-21T06:26:32.521Z,9.93
2019-03-21T06:31:39.459Z,7.80
2019-03-21T06:36:50.051Z,7.77
2019-03-21T06:41:59.849Z,8.43
2019-03-21T06:47:07.079Z,7.73
2019-03-21T06:52:14.211Z,8.23
2019-03-21T06:57:21.687Z,7.70
2019-03-21T07:02:31.152Z,7.47
2019-03-21T07:07:38.339Z,8.10
2019-03-21T07:12:45.937Z,7.77
2019-03-21T07:17:53.241Z,8.23
2019-03-21T07:23:00.104Z,7.97
2019-03-21T07:28:13.321Z,7.30
2019-03-21T07:33:22.829Z,8.70
2019-03-21T07:38:33.911Z,7.97
2019-03-21T07:43:42.299Z,7.67
2019-03-21T07:48:50.488Z,8.93
2019-03-21T07:54:00.476Z,8.30
2019-03-21T07:59:10.569Z,7.90
2019-03-21T08:04:17.681Z,8.40
2019-03-21T08:09:28.359Z,8.53
2019-03-21T08:14:39.195Z,7.60
2019-03-21T08:19:48.551Z,9.00
2019-03-21T08:24:58.694Z,7.63
2019-03-21T08:30:07.902Z,8.70
2019-03-21T08:35:18.988Z,8.30
2019-03-21T08:40:27.969Z,9.37
2019-03-21T08:45:35.233Z,10.17
2019-03-21T08:50:44.167Z,10.60
2019-03-21T08:55:54.686Z,10.43
2019-03-21T09:01:01.690Z,11.03
2019-03-21T09:06:11.122Z,10.90
2019-03-21T09:11:18.418Z,10.87
2019-03-21T09:16:26.460Z,11.20
2019-03-21T09:21:38.598Z,12.00
2019-03-21T09:26:45.482Z,11.40
2019-03-21T09:31:52.243Z,11.07
2019-03-21T09:37:03.989Z,10.90
2019-03-21T09:42:10.241Z,10.70
2019-03-21T09:52:24.975Z,9.30
2019-03-21T09:57:31.971Z,5.17
2019-03-21T10:02:39.222Z,6.40
2019-03-21T10:07:46.287Z,9.33
2019-03-21T10:12:55.433Z,9.70
2019-03-21T10:18:01.810Z,9.30
2019-03-21T10:23:09.870Z,8.20
2019-03-21T10:28:16.734Z,8.40
2019-03-21T10:33:28.384Z,9.57
2019-03-21T10:38:36.023Z,8.07
2019-03-21T10:43:47.579Z,7.77
2019-03-21T10:48:54.640Z,6.70
2019-03-21T10:54:01.520Z,6.73
2019-03-21T10:59:08.885Z,8.00
2019-03-21T11:04:17.141Z,8.43
2019-03-21T11:09:27.313Z,8.77
2019-03-21T11:14:36.027Z,7.20
2019-03-21T11:19:44.357Z,7.60
2019-03-21T11:24:53.769Z,8.17
2019-03-21T11:30:00.833Z,8.10
2019-03-21T11:35:07.783Z,8.93
2019-03-21T11:40:20.581Z,9.60
2019-03-21T11:45:29.797Z,9.77
2019-03-21T11:50:39.476Z,8.87
2019-03-21T11:55:49.817Z,10.33
2019-03-21T12:00:57.051Z,9.20
2019-03-21T12:06:06.844Z,8.33
2019-03-21T12:11:16.452Z,9.57
2019-03-21T12:16:24.876Z,9.53
2019-03-21T12:21:35.592Z,8.20
2019-03-21T12:26:42.303Z,8.90
2019-03-21T12:31:49.327Z,9.53
2019-03-21T12:36:56.063Z,8.47
2019-03-21T12:42:12.427Z,8.73
2019-03-21T12:47:30.853Z,8.37
2019-03-21T12:52:41.316Z,8.57
2019-03-21T12:57:47.432Z,8.20
2019-03-21T13:02:54.804Z,7.70
2019-03-21T13:08:06.589Z,8.50
2019-03-21T13:13:15.208Z,8.93
2019-03-21T13:18:22.112Z,9.60
2019-03-21T13:23:32.492Z,7.73
2019-03-21T13:28:45.151Z,7.87
2019-03-21T13:33:51.923Z,7.60
2019-03-21T13:38:58.931Z,8.47
2019-03-21T13:44:09.175Z,8.30
2019-03-21T13:49:20.178Z,9.23
2019-03-21T13:54:27.582Z,8.40
2019-03-21T13:59:34.800Z,7.90
2019-03-21T14:04:42.740Z,8.00
2019-03-21T14:09:51.593Z,7.17
2019-03-21T14:15:01.525Z,7.47
2019-03-21T14:20:11.840Z,8.90
2019-03-21T14:25:19.564Z,8.50
2019-03-21T14:30:27.124Z,9.53
2019-03-21T14:35:34.474Z,9.43
2019-03-21T14:40:42.654Z,9.20
2019-03-21T14:45:53.425Z,8.53
2019-03-21T14:51:05.529Z,8.40
2019-03-21T14:56:16.539Z,8.67
2019-03-21T15:01:23.953Z,8.37
2019-03-21T15:06:31.112Z,9.10
2019-03-21T15:11:42.535Z,8.00
2019-03-21T15:16:52.452Z,8.87
2019-03-21T15:22:03.704Z,8.80
2019-03-21T15:27:14.272Z,9.20
2019-03-21T15:32:25.181Z,7.80
2019-03-21T15:37:33.378Z,9.87
2019-03-21T15:42:43.327Z,10.67
2019-03-21T15:47:50.590Z,9.83
2019-03-21T15:52:58.661Z,10.43
2019-03-21T15:58:08.284Z,11.47
2019-03-21T16:03:21.178Z,9.83
2019-03-21T16:08:29.299Z,10.17
2019-03-21T16:13:47.563Z,9.93
2019-03-21T16:18:58.042Z,10.90
2019-03-21T16:24:05.869Z,9.70
2019-03-21T16:29:14.319Z,11.20
2019-03-21T16:34:21.592Z,10.10
2019-03-21T16:39:32.457Z,11.07
2019-03-21T16:44:39.669Z,10.40
2019-03-21T16:49:49.736Z,10.67
2019-03-21T16:55:00.945Z,11.17
2019-03-21T17:00:13.600Z,10.83
2019-03-21T17:05:22.328Z,10.37
2019-03-21T17:10:30.856Z,10.33
2019-03-21T17:15:42.778Z,11.73
2019-03-21T17:20:51.805Z,9.77
2019-03-21T17:26:00.348Z,9.43
2019-03-21T17:31:10.669Z,10.77
2019-03-21T17:36:22.623Z,10.63
2019-03-21T17:41:30.684Z,10.77
2019-03-21T17:46:38.685Z,18.80
2019-03-21T17:51:48.517Z,15.00
2019-03-21T17:56:56.836Z,14.03
2019-03-21T18:02:04.808Z,12.50
2019-03-21T18:07:16.679Z,13.03
2019-03-21T18:12:36.601Z,13.90
2019-03-21T18:17:47.353Z,14.43
2019-03-21T18:22:58.878Z,17.40
2019-03-21T18:28:09.097Z,16.03
2019-03-21T18:33:22.318Z,13.50
2019-03-21T18:38:35.923Z,12.53
2019-03-21T18:43:56.557Z,13.30
2019-03-21T18:49:08.907Z,14.30
2019-03-21T18:54:20.877Z,14.53
2019-03-21T18:59:32.138Z,13.53
2019-03-21T19:04:41.776Z,13.23
2019-03-21T19:09:51.237Z,13.67
2019-03-21T19:15:01.002Z,13.30
2019-03-21T19:20:13.127Z,13.43
2019-03-21T19:25:23.220Z,13.83
2019-03-21T19:30:31.073Z,13.77
2019-03-21T19:35:40.152Z,12.87
2019-03-21T19:40:52.364Z,13.70
2019-03-21T19:46:01.629Z,14.23
2019-03-21T19:51:11.293Z,15.00
2019-03-21T19:56:24.076Z,14.43
2019-03-21T20:01:33.667Z,16.67
2019-03-21T20:06:44.295Z,18.60
2019-03-21T20:11:53.916Z,20.07
2019-03-21T20:17:04.110Z,19.10
2019-03-21T20:22:13.650Z,18.00
2019-03-21T20:27:25.288Z,17.40
2019-03-21T20:32:38.913Z,17.20
2019-03-21T20:37:55.059Z,16.87
2019-03-21T20:43:05.831Z,16.53
2019-03-21T20:48:31.786Z,15.50
2019-03-21T20:53:39.954Z,16.60
2019-03-21T20:58:53.540Z,19.13
2019-03-21T21:04:05.144Z,18.07
2019-03-21T21:09:15.011Z,21.60
2019-03-21T21:14:26.470Z,21.00
2019-03-21T21:19:35.419Z,21.10
2019-03-21T21:24:50.784Z,19.60
2019-03-21T21:29:54.240Z,19.90
2019-03-21T21:35:01.912Z,18.73
2019-03-21T21:40:14.096Z,17.80
2019-03-21T21:45:22.924Z,20.30
2019-03-21T21:50:31.663Z,19.03
2019-03-21T21:55:41.078Z,18.33
2019-03-21T22:00:51.281Z,18.50
2019-03-21T22:06:00.315Z,18.47
2019-03-21T22:11:11.287Z,21.60
2019-03-21T22:16:18.889Z,20.70
2019-03-21T22:21:29.476Z,19.47
2019-03-21T22:26:37.699Z,19.43
2019-03-21T22:31:46.906Z,18.80
2019-03-21T22:36:55.727Z,18.90
2019-03-21T22:42:04.905Z,18.37
2019-03-21T22:47:16.530Z,18.73
2019-03-21T22:52:24.190Z,17.67
2019-03-21T22:57:39.178Z,17.20
2019-03-21T23:02:50.616Z,18.43
2019-03-21T23:07:57.956Z,17.60
2019-03-21T23:13:08.109Z,17.03
2019-03-21T23:18:16.716Z,17.63
2019-03-21T23:23:25.157Z,18.00
2019-03-21T23:28:35.821Z,18.10
2019-03-21T23:33:45.264Z,16.90
2019-03-21T23:38:54.643Z,17.70
2019-03-21T23:44:02.226Z,18.00
2019-03-21T23:49:19.810Z,18.83
2019-03-21T23:59:41.423Z,17.60
